sensor_id;sensor_type;location;lat;lon;timestamp;noise_LAeq;noise_LA_min;noise_LA_max;noise_LA01;noise_LA95
72805;Laerm;60920;48.748;19.142;2023-01-16T00:00:38;38.04;36.53;39.62;;
72805;Laerm;60920;48.748;19.142;2023-01-16T00:03:03;38.05;36.58;39.47;;
72805;Laerm;60920;48.748;19.142;2023-01-16T00:05:29;38.06;36.56;39.46;;
72805;Laerm;60920;48.748;19.142;2023-01-16T00:07:54;38.06;36.53;39.69;;
72805;Laerm;60920;48.748;19.142;2023-01-16T00:10:19;38.08;36.68;39.61;;
72805;Laerm;60920;48.748;19.142;2023-01-16T00:12:48;38.04;36.49;39.32;;
72805;Laerm;60920;48.748;19.142;2023-01-16T00:15:13;38.09;36.32;39.58;;
72805;Laerm;60920;48.748;19.142;2023-01-16T00:17:39;38.07;36.64;39.69;;
72805;Laerm;60920;48.748;19.142;2023-01-16T00:20:04;38.11;36.52;39.54;;
72805;Laerm;60920;48.748;19.142;2023-01-16T00:22:30;38.17;36.44;41.03;;
72805;Laerm;60920;48.748;19.142;2023-01-16T00:24:55;38.00;36.56;39.34;;
72805;Laerm;60920;48.748;19.142;2023-01-16T00:27:20;38.01;36.32;40.22;;
72805;Laerm;60920;48.748;19.142;2023-01-16T00:29:45;37.97;36.34;39.34;;
72805;Laerm;60920;48.748;19.142;2023-01-16T00:32:11;37.92;36.39;42.96;;
72805;Laerm;60920;48.748;19.142;2023-01-16T00:34:37;37.99;36.31;40.53;;
72805;Laerm;60920;48.748;19.142;2023-01-16T00:37:02;38.00;36.49;40.41;;
72805;Laerm;60920;48.748;19.142;2023-01-16T00:39:27;38.00;36.67;40.33;;
72805;Laerm;60920;48.748;19.142;2023-01-16T00:41:52;37.99;36.61;39.97;;
72805;Laerm;60920;48.748;19.142;2023-01-16T00:44:18;38.03;36.56;39.37;;
72805;Laerm;60920;48.748;19.142;2023-01-16T00:46:44;38.05;36.50;39.60;;
72805;Laerm;60920;48.748;19.142;2023-01-16T00:49:09;38.07;36.46;39.58;;
72805;Laerm;60920;48.748;19.142;2023-01-16T00:51:35;38.12;36.63;41.35;;
72805;Laerm;60920;48.748;19.142;2023-01-16T00:54:00;38.16;36.63;39.94;;
72805;Laerm;60920;48.748;19.142;2023-01-16T00:56:25;38.11;36.54;43.46;;
72805;Laerm;60920;48.748;19.142;2023-01-16T00:58:51;38.09;36.53;39.80;;
72805;Laerm;60920;48.748;19.142;2023-01-16T01:01:16;38.03;36.49;39.45;;
72805;Laerm;60920;48.748;19.142;2023-01-16T01:03:41;37.98;36.45;40.53;;
72805;Laerm;60920;48.748;19.142;2023-01-16T01:06:07;38.01;36.81;42.35;;
72805;Laerm;60920;48.748;19.142;2023-01-16T01:08:33;38.05;36.56;40.03;;
72805;Laerm;60920;48.748;19.142;2023-01-16T01:11:04;38.00;36.45;40.88;;
72805;Laerm;60920;48.748;19.142;2023-01-16T01:13:30;38.04;36.31;39.68;;
72805;Laerm;60920;48.748;19.142;2023-01-16T01:15:55;37.99;36.21;39.44;;
72805;Laerm;60920;48.748;19.142;2023-01-16T01:18:20;38.02;36.35;39.59;;
72805;Laerm;60920;48.748;19.142;2023-01-16T01:20:46;38.07;36.52;41.20;;
72805;Laerm;60920;48.748;19.142;2023-01-16T01:23:11;38.02;36.31;44.08;;
72805;Laerm;60920;48.748;19.142;2023-01-16T01:25:37;37.98;36.46;40.16;;
72805;Laerm;60920;48.748;19.142;2023-01-16T01:28:02;38.04;36.66;42.73;;
72805;Laerm;60920;48.748;19.142;2023-01-16T01:30:28;38.13;36.56;40.98;;
72805;Laerm;60920;48.748;19.142;2023-01-16T01:32:53;38.13;36.71;40.66;;
72805;Laerm;60920;48.748;19.142;2023-01-16T01:35:19;38.09;36.36;40.06;;
72805;Laerm;60920;48.748;19.142;2023-01-16T01:37:44;38.05;36.73;40.10;;
72805;Laerm;60920;48.748;19.142;2023-01-16T01:40:10;38.06;36.62;41.83;;
72805;Laerm;60920;48.748;19.142;2023-01-16T01:42:36;38.08;36.52;40.56;;
72805;Laerm;60920;48.748;19.142;2023-01-16T01:45:18;38.03;36.40;48.31;;
72805;Laerm;60920;48.748;19.142;2023-01-16T01:47:45;38.18;36.71;43.14;;
72805;Laerm;60920;48.748;19.142;2023-01-16T01:50:19;38.05;36.36;43.15;;
72805;Laerm;60920;48.748;19.142;2023-01-16T01:52:45;38.07;36.51;39.69;;
72805;Laerm;60920;48.748;19.142;2023-01-16T01:55:11;38.14;36.42;40.48;;
72805;Laerm;60920;48.748;19.142;2023-01-16T01:57:39;38.07;36.53;39.83;;
72805;Laerm;60920;48.748;19.142;2023-01-16T02:00:15;38.04;36.46;40.27;;
72805;Laerm;60920;48.748;19.142;2023-01-16T02:02:43;38.02;36.45;39.44;;
72805;Laerm;60920;48.748;19.142;2023-01-16T02:05:09;38.04;36.57;40.58;;
72805;Laerm;60920;48.748;19.142;2023-01-16T02:07:35;38.02;36.57;40.74;;
72805;Laerm;60920;48.748;19.142;2023-01-16T02:10:03;38.04;36.66;40.24;;
72805;Laerm;60920;48.748;19.142;2023-01-16T02:12:31;38.02;36.50;41.14;;
72805;Laerm;60920;48.748;19.142;2023-01-16T02:14:56;37.93;36.43;40.18;;
72805;Laerm;60920;48.748;19.142;2023-01-16T02:17:23;38.03;36.50;43.21;;
72805;Laerm;60920;48.748;19.142;2023-01-16T02:36:04;37.92;36.26;42.56;;
72805;Laerm;60920;48.748;19.142;2023-01-16T02:38:37;37.93;36.36;39.65;;
72805;Laerm;60920;48.748;19.142;2023-01-16T02:44:29;37.94;36.40;40.79;;
72805;Laerm;60920;48.748;19.142;2023-01-16T02:48:59;38.02;36.38;41.72;;
72805;Laerm;60920;48.748;19.142;2023-01-16T02:51:34;38.00;36.37;44.12;;
72805;Laerm;60920;48.748;19.142;2023-01-16T02:54:10;38.12;36.38;41.60;;
72805;Laerm;60920;48.748;19.142;2023-01-16T02:56:44;38.08;36.62;42.20;;
72805;Laerm;60920;48.748;19.142;2023-01-16T02:59:11;38.01;35.98;42.73;;
72805;Laerm;60920;48.748;19.142;2023-01-16T03:01:37;38.03;36.30;41.37;;
72805;Laerm;60920;48.748;19.142;2023-01-16T03:04:51;38.04;36.49;40.59;;
72805;Laerm;60920;48.748;19.142;2023-01-16T03:07:07;37.98;36.61;41.66;;
72805;Laerm;60920;48.748;19.142;2023-01-16T03:12:05;37.96;36.47;41.90;;
72805;Laerm;60920;48.748;19.142;2023-01-16T03:14:35;38.03;36.69;40.54;;
72805;Laerm;60920;48.748;19.142;2023-01-16T03:17:07;37.97;36.56;40.21;;
72805;Laerm;60920;48.748;19.142;2023-01-16T03:30:11;38.07;36.33;49.72;;
72805;Laerm;60920;48.748;19.142;2023-01-16T03:37:32;38.11;36.44;46.57;;
72805;Laerm;60920;48.748;19.142;2023-01-16T03:40:02;38.04;36.58;42.06;;
72805;Laerm;60920;48.748;19.142;2023-01-16T03:45:11;38.02;36.54;41.63;;
72805;Laerm;60920;48.748;19.142;2023-01-16T03:47:40;38.07;36.45;41.50;;
72805;Laerm;60920;48.748;19.142;2023-01-16T03:50:07;38.05;36.63;41.47;;
72805;Laerm;60920;48.748;19.142;2023-01-16T03:52:36;38.15;36.34;40.94;;
72805;Laerm;60920;48.748;19.142;2023-01-16T03:57:58;38.15;36.62;40.34;;
72805;Laerm;60920;48.748;19.142;2023-01-16T04:00:26;38.09;36.63;41.95;;
72805;Laerm;60920;48.748;19.142;2023-01-16T04:03:07;38.16;36.65;39.73;;
72805;Laerm;60920;48.748;19.142;2023-01-16T04:05:46;38.04;36.34;43.05;;
72805;Laerm;60920;48.748;19.142;2023-01-16T04:08:15;38.07;36.72;43.00;;
72805;Laerm;60920;48.748;19.142;2023-01-16T04:10:42;38.05;36.48;39.95;;
72805;Laerm;60920;48.748;19.142;2023-01-16T04:13:09;38.02;36.57;39.72;;
72805;Laerm;60920;48.748;19.142;2023-01-16T04:15:37;38.06;36.43;47.81;;
72805;Laerm;60920;48.748;19.142;2023-01-16T04:18:04;38.06;36.55;41.69;;
72805;Laerm;60920;48.748;19.142;2023-01-16T04:20:30;38.07;36.49;43.44;;
72805;Laerm;60920;48.748;19.142;2023-01-16T04:22:56;38.07;36.21;41.01;;
72805;Laerm;60920;48.748;19.142;2023-01-16T04:25:22;38.12;36.62;43.92;;
72805;Laerm;60920;48.748;19.142;2023-01-16T04:27:47;38.06;36.58;40.47;;
72805;Laerm;60920;48.748;19.142;2023-01-16T04:30:13;38.05;36.20;40.23;;
72805;Laerm;60920;48.748;19.142;2023-01-16T04:32:40;38.03;36.35;40.09;;
72805;Laerm;60920;48.748;19.142;2023-01-16T04:35:05;38.06;36.60;42.23;;
72805;Laerm;60920;48.748;19.142;2023-01-16T04:37:31;38.07;36.48;41.68;;
72805;Laerm;60920;48.748;19.142;2023-01-16T04:39:56;38.04;36.49;40.63;;
72805;Laerm;60920;48.748;19.142;2023-01-16T04:42:23;38.05;36.47;43.19;;
72805;Laerm;60920;48.748;19.142;2023-01-16T04:44:49;38.04;36.45;44.59;;
72805;Laerm;60920;48.748;19.142;2023-01-16T04:47:14;38.03;36.56;41.51;;
72805;Laerm;60920;48.748;19.142;2023-01-16T04:49:39;38.13;36.54;40.12;;
72805;Laerm;60920;48.748;19.142;2023-01-16T04:52:05;38.07;36.38;39.98;;
72805;Laerm;60920;48.748;19.142;2023-01-16T04:54:30;38.05;36.44;39.63;;
72805;Laerm;60920;48.748;19.142;2023-01-16T04:56:56;38.04;36.62;40.61;;
72805;Laerm;60920;48.748;19.142;2023-01-16T04:59:21;38.10;36.66;41.90;;
72805;Laerm;60920;48.748;19.142;2023-01-16T05:01:47;38.09;36.39;39.71;;
72805;Laerm;60920;48.748;19.142;2023-01-16T05:04:13;38.14;36.60;43.98;;
72805;Laerm;60920;48.748;19.142;2023-01-16T05:06:39;38.03;36.58;43.55;;
72805;Laerm;60920;48.748;19.142;2023-01-16T05:09:05;38.01;36.34;41.96;;
72805;Laerm;60920;48.748;19.142;2023-01-16T05:11:30;37.99;36.49;42.24;;
72805;Laerm;60920;48.748;19.142;2023-01-16T05:13:56;38.01;36.24;40.99;;
72805;Laerm;60920;48.748;19.142;2023-01-16T05:16:22;38.05;36.64;45.99;;
72805;Laerm;60920;48.748;19.142;2023-01-16T05:18:47;38.05;36.38;41.62;;
72805;Laerm;60920;48.748;19.142;2023-01-16T05:21:12;38.10;36.77;42.24;;
72805;Laerm;60920;48.748;19.142;2023-01-16T05:23:38;38.12;36.69;40.13;;
72805;Laerm;60920;48.748;19.142;2023-01-16T05:26:04;38.14;36.74;40.05;;
72805;Laerm;60920;48.748;19.142;2023-01-16T05:28:30;38.36;36.42;43.27;;
72805;Laerm;60920;48.748;19.142;2023-01-16T05:30:55;38.09;36.39;41.93;;
72805;Laerm;60920;48.748;19.142;2023-01-16T05:33:21;38.10;36.73;41.59;;
72805;Laerm;60920;48.748;19.142;2023-01-16T05:35:46;38.06;36.58;39.90;;
72805;Laerm;60920;48.748;19.142;2023-01-16T05:38:12;38.07;36.02;40.56;;
72805;Laerm;60920;48.748;19.142;2023-01-16T05:40:37;38.08;36.71;43.33;;
72805;Laerm;60920;48.748;19.142;2023-01-16T05:43:03;38.09;36.48;41.92;;
72805;Laerm;60920;48.748;19.142;2023-01-16T05:45:29;38.09;36.67;43.42;;
72805;Laerm;60920;48.748;19.142;2023-01-16T05:47:54;38.08;36.59;41.12;;
72805;Laerm;60920;48.748;19.142;2023-01-16T05:50:19;38.08;36.37;40.47;;
72805;Laerm;60920;48.748;19.142;2023-01-16T05:52:44;38.14;36.70;40.07;;
72805;Laerm;60920;48.748;19.142;2023-01-16T05:55:10;38.09;36.32;41.79;;
72805;Laerm;60920;48.748;19.142;2023-01-16T05:57:35;38.07;36.49;42.12;;
72805;Laerm;60920;48.748;19.142;2023-01-16T06:00:00;38.13;36.68;41.53;;
72805;Laerm;60920;48.748;19.142;2023-01-16T06:02:26;38.17;36.64;41.44;;
72805;Laerm;60920;48.748;19.142;2023-01-16T06:04:51;38.16;36.72;43.25;;
72805;Laerm;60920;48.748;19.142;2023-01-16T06:07:17;38.15;36.50;40.16;;
72805;Laerm;60920;48.748;19.142;2023-01-16T06:09:42;38.05;36.56;39.49;;
72805;Laerm;60920;48.748;19.142;2023-01-16T06:12:07;38.07;36.64;41.47;;
72805;Laerm;60920;48.748;19.142;2023-01-16T06:14:33;38.05;36.51;41.18;;
72805;Laerm;60920;48.748;19.142;2023-01-16T06:16:58;38.09;36.39;40.12;;
72805;Laerm;60920;48.748;19.142;2023-01-16T06:19:24;38.06;36.62;43.79;;
72805;Laerm;60920;48.748;19.142;2023-01-16T06:21:49;37.99;36.34;40.38;;
72805;Laerm;60920;48.748;19.142;2023-01-16T06:24:14;38.09;36.60;41.66;;
72805;Laerm;60920;48.748;19.142;2023-01-16T06:26:39;38.07;36.66;41.45;;
72805;Laerm;60920;48.748;19.142;2023-01-16T06:29:05;38.02;36.22;42.54;;
72805;Laerm;60920;48.748;19.142;2023-01-16T06:31:30;38.07;36.54;40.24;;
72805;Laerm;60920;48.748;19.142;2023-01-16T06:33:56;38.20;36.63;40.49;;
72805;Laerm;60920;48.748;19.142;2023-01-16T06:36:21;38.23;36.63;47.73;;
72805;Laerm;60920;48.748;19.142;2023-01-16T06:38:46;38.21;36.71;40.77;;
72805;Laerm;60920;48.748;19.142;2023-01-16T06:41:12;38.38;36.68;41.23;;
72805;Laerm;60920;48.748;19.142;2023-01-16T06:43:37;38.35;36.64;40.35;;
72805;Laerm;60920;48.748;19.142;2023-01-16T06:46:02;38.30;36.78;41.26;;
72805;Laerm;60920;48.748;19.142;2023-01-16T06:48:28;38.39;36.75;40.26;;
72805;Laerm;60920;48.748;19.142;2023-01-16T06:50:53;38.31;36.80;41.33;;
72805;Laerm;60920;48.748;19.142;2023-01-16T06:53:19;38.39;36.81;45.91;;
72805;Laerm;60920;48.748;19.142;2023-01-16T06:55:44;38.44;36.77;40.01;;
72805;Laerm;60920;48.748;19.142;2023-01-16T06:58:09;38.32;36.72;44.18;;
72805;Laerm;60920;48.748;19.142;2023-01-16T07:00:35;38.29;36.77;41.61;;
72805;Laerm;60920;48.748;19.142;2023-01-16T07:03:00;38.28;36.75;44.18;;
72805;Laerm;60920;48.748;19.142;2023-01-16T07:05:27;38.28;36.68;41.30;;
72805;Laerm;60920;48.748;19.142;2023-01-16T07:07:52;38.11;36.55;40.40;;
72805;Laerm;60920;48.748;19.142;2023-01-16T07:10:18;38.10;36.70;41.86;;
72805;Laerm;60920;48.748;19.142;2023-01-16T07:12:47;38.16;36.78;40.04;;
72805;Laerm;60920;48.748;19.142;2023-01-16T07:15:12;38.15;36.60;44.77;;
72805;Laerm;60920;48.748;19.142;2023-01-16T07:17:56;38.13;36.51;43.84;;
72805;Laerm;60920;48.748;19.142;2023-01-16T07:20:40;38.13;36.57;42.27;;
72805;Laerm;60920;48.748;19.142;2023-01-16T07:23:26;38.14;36.47;40.66;;
72805;Laerm;60920;48.748;19.142;2023-01-16T07:25:52;38.07;36.45;40.43;;
72805;Laerm;60920;48.748;19.142;2023-01-16T07:28:18;38.18;36.40;39.90;;
72805;Laerm;60920;48.748;19.142;2023-01-16T07:30:44;38.18;36.41;39.89;;
72805;Laerm;60920;48.748;19.142;2023-01-16T07:33:10;38.21;36.59;39.92;;
72805;Laerm;60920;48.748;19.142;2023-01-16T07:35:36;38.22;36.40;40.65;;
72805;Laerm;60920;48.748;19.142;2023-01-16T07:38:02;38.24;36.57;39.58;;
72805;Laerm;60920;48.748;19.142;2023-01-16T07:40:27;38.26;36.72;40.05;;
72805;Laerm;60920;48.748;19.142;2023-01-16T07:42:52;38.22;36.63;40.40;;
72805;Laerm;60920;48.748;19.142;2023-01-16T07:45:18;38.22;36.82;39.63;;
72805;Laerm;60920;48.748;19.142;2023-01-16T07:47:43;38.24;36.66;41.27;;
72805;Laerm;60920;48.748;19.142;2023-01-16T07:50:09;38.23;36.67;39.79;;
72805;Laerm;60920;48.748;19.142;2023-01-16T07:52:34;38.21;36.67;41.14;;
72805;Laerm;60920;48.748;19.142;2023-01-16T07:54:59;38.17;36.67;40.22;;
72805;Laerm;60920;48.748;19.142;2023-01-16T07:57:25;38.14;36.59;40.72;;
72805;Laerm;60920;48.748;19.142;2023-01-16T07:59:50;38.07;36.71;41.19;;
72805;Laerm;60920;48.748;19.142;2023-01-16T08:02:16;38.11;36.58;41.86;;
72805;Laerm;60920;48.748;19.142;2023-01-16T08:04:41;38.04;36.34;45.79;;
72805;Laerm;60920;48.748;19.142;2023-01-16T08:07:06;38.23;36.54;48.59;;
72805;Laerm;60920;48.748;19.142;2023-01-16T08:09:32;38.16;36.52;45.83;;
72805;Laerm;60920;48.748;19.142;2023-01-16T08:11:57;38.00;36.66;40.67;;
72805;Laerm;60920;48.748;19.142;2023-01-16T08:14:22;38.06;36.40;43.44;;
72805;Laerm;60920;48.748;19.142;2023-01-16T08:16:47;38.10;36.45;39.94;;
72805;Laerm;60920;48.748;19.142;2023-01-16T08:19:13;38.06;36.67;40.41;;
72805;Laerm;60920;48.748;19.142;2023-01-16T08:21:38;38.05;36.20;42.36;;
72805;Laerm;60920;48.748;19.142;2023-01-16T08:24:04;38.00;36.65;39.94;;
72805;Laerm;60920;48.748;19.142;2023-01-16T08:26:29;38.04;36.53;45.76;;
72805;Laerm;60920;48.748;19.142;2023-01-16T08:28:54;38.63;36.59;48.08;;
72805;Laerm;60920;48.748;19.142;2023-01-16T08:31:20;38.34;36.44;48.45;;
72805;Laerm;60920;48.748;19.142;2023-01-16T08:33:45;38.00;36.48;40.05;;
72805;Laerm;60920;48.748;19.142;2023-01-16T08:36:14;38.04;36.62;41.78;;
72805;Laerm;60920;48.748;19.142;2023-01-16T08:38:42;38.58;36.66;50.47;;
72805;Laerm;60920;48.748;19.142;2023-01-16T08:41:08;38.01;36.43;43.69;;
72805;Laerm;60920;48.748;19.142;2023-01-16T08:43:52;37.96;36.62;45.06;;
72805;Laerm;60920;48.748;19.142;2023-01-16T08:46:36;37.98;36.53;43.16;;
72805;Laerm;60920;48.748;19.142;2023-01-16T08:49:20;37.98;36.43;44.11;;
72805;Laerm;60920;48.748;19.142;2023-01-16T08:52:06;38.07;36.55;48.37;;
72805;Laerm;60920;48.748;19.142;2023-01-16T08:54:31;38.06;36.51;47.69;;
72805;Laerm;60920;48.748;19.142;2023-01-16T08:56:56;37.95;36.49;40.54;;
72805;Laerm;60920;48.748;19.142;2023-01-16T08:59:22;38.16;36.55;45.66;;
72805;Laerm;60920;48.748;19.142;2023-01-16T09:01:48;38.01;36.46;40.97;;
72805;Laerm;60920;48.748;19.142;2023-01-16T09:04:13;38.03;36.48;41.12;;
72805;Laerm;60920;48.748;19.142;2023-01-16T09:06:38;37.93;36.54;45.09;;
72805;Laerm;60920;48.748;19.142;2023-01-16T09:09:04;37.93;36.30;45.70;;
72805;Laerm;60920;48.748;19.142;2023-01-16T09:11:31;38.30;36.48;50.57;;
72805;Laerm;60920;48.748;19.142;2023-01-16T09:14:14;37.92;36.57;46.29;;
72805;Laerm;60920;48.748;19.142;2023-01-16T09:16:40;37.95;36.37;41.93;;
72805;Laerm;60920;48.748;19.142;2023-01-16T09:19:05;37.87;36.28;43.17;;
72805;Laerm;60920;48.748;19.142;2023-01-16T09:21:31;37.90;36.43;42.49;;
72805;Laerm;60920;48.748;19.142;2023-01-16T09:23:56;37.88;36.46;39.87;;
72805;Laerm;60920;48.748;19.142;2023-01-16T09:26:21;38.06;36.38;48.05;;
72805;Laerm;60920;48.748;19.142;2023-01-16T09:28:47;37.91;36.48;42.30;;
72805;Laerm;60920;48.748;19.142;2023-01-16T09:31:12;37.89;36.37;42.67;;
72805;Laerm;60920;48.748;19.142;2023-01-16T09:33:37;37.89;36.41;43.52;;
72805;Laerm;60920;48.748;19.142;2023-01-16T09:36:03;37.93;36.34;43.57;;
72805;Laerm;60920;48.748;19.142;2023-01-16T09:38:28;37.88;36.48;40.14;;
72805;Laerm;60920;48.748;19.142;2023-01-16T09:40:55;37.90;36.41;41.75;;
72805;Laerm;60920;48.748;19.142;2023-01-16T09:46:13;37.91;36.36;42.84;;
72805;Laerm;60920;48.748;19.142;2023-01-16T09:51:14;38.00;36.66;43.35;;
72805;Laerm;60920;48.748;19.142;2023-01-16T09:53:45;38.01;36.52;43.94;;
72805;Laerm;60920;48.748;19.142;2023-01-16T09:56:41;37.99;36.15;45.31;;
72805;Laerm;60920;48.748;19.142;2023-01-16T09:59:43;37.91;36.25;41.96;;
72805;Laerm;60920;48.748;19.142;2023-01-16T10:02:19;37.97;36.32;44.18;;
72805;Laerm;60920;48.748;19.142;2023-01-16T10:04:46;37.92;36.48;39.60;;
72805;Laerm;60920;48.748;19.142;2023-01-16T10:09:49;38.01;36.26;45.83;;
72805;Laerm;60920;48.748;19.142;2023-01-16T10:12:19;38.02;36.39;44.77;;
72805;Laerm;60920;48.748;19.142;2023-01-16T10:17:55;38.06;36.61;39.74;;
72805;Laerm;60920;48.748;19.142;2023-01-16T10:30:27;38.01;36.45;41.85;;
72805;Laerm;60920;48.748;19.142;2023-01-16T10:33:05;37.96;36.41;40.23;;
72805;Laerm;60920;48.748;19.142;2023-01-16T10:35:44;38.51;36.41;44.98;;
72805;Laerm;60920;48.748;19.142;2023-01-16T10:38:20;38.15;36.51;44.12;;
72805;Laerm;60920;48.748;19.142;2023-01-16T10:40:48;37.96;36.49;41.09;;
72805;Laerm;60920;48.748;19.142;2023-01-16T10:43:19;37.93;36.22;43.52;;
72805;Laerm;60920;48.748;19.142;2023-01-16T10:46:10;37.97;36.21;40.74;;
72805;Laerm;60920;48.748;19.142;2023-01-16T10:48:56;38.00;36.54;42.03;;
72805;Laerm;60920;48.748;19.142;2023-01-16T10:51:40;38.04;36.25;42.73;;
72805;Laerm;60920;48.748;19.142;2023-01-16T10:54:05;38.14;36.51;43.60;;
72805;Laerm;60920;48.748;19.142;2023-01-16T10:56:30;37.88;36.32;39.57;;
72805;Laerm;60920;48.748;19.142;2023-01-16T10:58:58;37.93;36.10;42.41;;
72805;Laerm;60920;48.748;19.142;2023-01-16T11:01:23;37.95;36.54;41.36;;
72805;Laerm;60920;48.748;19.142;2023-01-16T11:03:50;37.93;36.31;42.58;;
72805;Laerm;60920;48.748;19.142;2023-01-16T11:06:29;37.93;36.51;39.47;;
72805;Laerm;60920;48.748;19.142;2023-01-16T11:09:05;37.98;36.54;41.72;;
72805;Laerm;60920;48.748;19.142;2023-01-16T11:11:36;38.01;36.47;41.15;;
72805;Laerm;60920;48.748;19.142;2023-01-16T11:14:32;38.03;36.67;43.61;;
72805;Laerm;60920;48.748;19.142;2023-01-16T11:20:13;38.00;36.39;40.19;;
72805;Laerm;60920;48.748;19.142;2023-01-16T11:22:41;38.00;36.49;39.76;;
72805;Laerm;60920;48.748;19.142;2023-01-16T11:25:09;38.04;36.64;39.74;;
72805;Laerm;60920;48.748;19.142;2023-01-16T11:27:38;38.01;36.37;42.76;;
72805;Laerm;60920;48.748;19.142;2023-01-16T11:30:06;37.99;36.49;42.66;;
72805;Laerm;60920;48.748;19.142;2023-01-16T11:32:33;37.95;36.18;39.33;;
72805;Laerm;60920;48.748;19.142;2023-01-16T11:35:03;37.98;36.49;40.21;;
72805;Laerm;60920;48.748;19.142;2023-01-16T11:37:35;38.00;36.47;41.31;;
72805;Laerm;60920;48.748;19.142;2023-01-16T11:40:01;37.99;36.57;42.93;;
72805;Laerm;60920;48.748;19.142;2023-01-16T11:42:27;37.98;36.56;41.03;;
72805;Laerm;60920;48.748;19.142;2023-01-16T11:45:18;37.96;36.50;41.14;;
72805;Laerm;60920;48.748;19.142;2023-01-16T11:48:04;37.97;35.90;41.32;;
72805;Laerm;60920;48.748;19.142;2023-01-16T11:50:55;37.96;36.27;40.50;;
72805;Laerm;60920;48.748;19.142;2023-01-16T11:53:20;38.01;36.53;40.72;;
72805;Laerm;60920;48.748;19.142;2023-01-16T11:55:52;38.02;36.61;40.17;;
72805;Laerm;60920;48.748;19.142;2023-01-16T12:01:11;38.02;36.57;40.06;;
72805;Laerm;60920;48.748;19.142;2023-01-16T12:03:58;38.01;36.19;40.07;;
72805;Laerm;60920;48.748;19.142;2023-01-16T12:06:42;38.02;36.41;40.85;;
72805;Laerm;60920;48.748;19.142;2023-01-16T12:11:58;38.11;36.66;44.39;;
72805;Laerm;60920;48.748;19.142;2023-01-16T12:14:47;38.05;36.43;41.87;;
72805;Laerm;60920;48.748;19.142;2023-01-16T12:22:34;37.99;36.49;44.37;;
72805;Laerm;60920;48.748;19.142;2023-01-16T12:30:35;38.20;36.51;46.78;;
72805;Laerm;60920;48.748;19.142;2023-01-16T12:33:21;38.15;36.34;44.86;;
72805;Laerm;60920;48.748;19.142;2023-01-16T12:38:27;38.17;36.50;44.91;;
72805;Laerm;60920;48.748;19.142;2023-01-16T12:49:13;38.13;36.64;40.97;;
72805;Laerm;60920;48.748;19.142;2023-01-16T13:01:51;38.06;36.39;40.66;;
72805;Laerm;60920;48.748;19.142;2023-01-16T13:06:46;38.03;36.46;39.54;;
72805;Laerm;60920;48.748;19.142;2023-01-16T13:09:17;38.11;36.59;44.97;;
72805;Laerm;60920;48.748;19.142;2023-01-16T13:11:57;38.05;36.56;44.85;;
72805;Laerm;60920;48.748;19.142;2023-01-16T13:14:43;37.98;36.47;40.12;;
72805;Laerm;60920;48.748;19.142;2023-01-16T13:17:13;37.99;36.54;40.94;;
72805;Laerm;60920;48.748;19.142;2023-01-16T13:19:42;38.01;36.19;39.75;;
72805;Laerm;60920;48.748;19.142;2023-01-16T13:24:38;37.97;36.44;47.39;;
72805;Laerm;60920;48.748;19.142;2023-01-16T13:27:07;37.97;36.45;39.67;;
72805;Laerm;60920;48.748;19.142;2023-01-16T13:29:44;38.03;36.48;42.93;;
72805;Laerm;60920;48.748;19.142;2023-01-16T13:32:18;38.03;36.55;40.88;;
72805;Laerm;60920;48.748;19.142;2023-01-16T13:34:49;38.12;36.65;42.28;;
72805;Laerm;60920;48.748;19.142;2023-01-16T13:42:32;38.03;36.40;40.15;;
72805;Laerm;60920;48.748;19.142;2023-01-16T13:45:01;38.08;36.75;46.12;;
72805;Laerm;60920;48.748;19.142;2023-01-16T13:47:46;38.02;36.53;41.86;;
72805;Laerm;60920;48.748;19.142;2023-01-16T13:50:18;37.96;36.23;41.32;;
72805;Laerm;60920;48.748;19.142;2023-01-16T13:52:44;37.97;36.66;40.33;;
72805;Laerm;60920;48.748;19.142;2023-01-16T13:55:18;37.97;36.38;41.38;;
72805;Laerm;60920;48.748;19.142;2023-01-16T13:57:46;37.94;36.45;39.50;;
72805;Laerm;60920;48.748;19.142;2023-01-16T14:00:15;37.96;36.18;42.54;;
72805;Laerm;60920;48.748;19.142;2023-01-16T14:02:42;37.95;36.30;45.17;;
72805;Laerm;60920;48.748;19.142;2023-01-16T14:10:46;37.97;36.35;39.86;;
72805;Laerm;60920;48.748;19.142;2023-01-16T14:15:53;38.02;36.23;40.26;;
72805;Laerm;60920;48.748;19.142;2023-01-16T14:18:42;37.92;36.23;42.44;;
72805;Laerm;60920;48.748;19.142;2023-01-16T14:23:39;37.93;36.43;39.56;;
72805;Laerm;60920;48.748;19.142;2023-01-16T14:26:44;37.96;36.61;42.58;;
72805;Laerm;60920;48.748;19.142;2023-01-16T14:29:14;37.97;36.57;41.84;;
72805;Laerm;60920;48.748;19.142;2023-01-16T14:32:01;37.95;36.47;39.86;;
72805;Laerm;60920;48.748;19.142;2023-01-16T14:34:27;37.96;36.33;41.42;;
72805;Laerm;60920;48.748;19.142;2023-01-16T14:36:54;37.99;36.55;44.94;;
72805;Laerm;60920;48.748;19.142;2023-01-16T14:39:35;37.95;36.51;45.72;;
72805;Laerm;60920;48.748;19.142;2023-01-16T14:42:13;38.01;36.45;48.99;;
72805;Laerm;60920;48.748;19.142;2023-01-16T14:45:09;37.89;36.32;40.56;;
72805;Laerm;60920;48.748;19.142;2023-01-16T14:47:56;37.89;36.33;39.59;;
72805;Laerm;60920;48.748;19.142;2023-01-16T14:50:51;37.89;36.23;44.73;;
72805;Laerm;60920;48.748;19.142;2023-01-16T14:53:37;37.89;36.53;40.56;;
72805;Laerm;60920;48.748;19.142;2023-01-16T14:56:26;37.88;36.36;40.88;;
72805;Laerm;60920;48.748;19.142;2023-01-16T14:58:53;37.89;36.50;47.13;;
72805;Laerm;60920;48.748;19.142;2023-01-16T15:01:29;37.88;36.38;46.01;;
72805;Laerm;60920;48.748;19.142;2023-01-16T15:04:13;37.82;36.31;44.85;;
72805;Laerm;60920;48.748;19.142;2023-01-16T15:06:42;37.82;36.29;40.65;;
72805;Laerm;60920;48.748;19.142;2023-01-16T15:11:41;37.85;36.39;39.79;;
72805;Laerm;60920;48.748;19.142;2023-01-16T15:14:14;37.87;36.35;39.65;;
72805;Laerm;60920;48.748;19.142;2023-01-16T15:19:56;37.85;36.36;39.90;;
72805;Laerm;60920;48.748;19.142;2023-01-16T15:22:42;37.83;36.14;39.34;;
72805;Laerm;60920;48.748;19.142;2023-01-16T15:25:12;37.83;36.27;39.95;;
72805;Laerm;60920;48.748;19.142;2023-01-16T15:27:41;37.83;36.36;41.17;;
72805;Laerm;60920;48.748;19.142;2023-01-16T15:30:11;37.84;36.42;39.32;;
72805;Laerm;60920;48.748;19.142;2023-01-16T15:32:59;37.85;36.46;40.42;;
72805;Laerm;60920;48.748;19.142;2023-01-16T15:35:44;37.86;36.28;41.19;;
72805;Laerm;60920;48.748;19.142;2023-01-16T15:38:19;37.83;36.45;42.34;;
72805;Laerm;60920;48.748;19.142;2023-01-16T15:40:48;37.90;36.38;41.53;;
72805;Laerm;60920;48.748;19.142;2023-01-16T15:43:15;37.87;35.77;40.66;;
72805;Laerm;60920;48.748;19.142;2023-01-16T15:46:03;37.87;36.24;41.18;;
72805;Laerm;60920;48.748;19.142;2023-01-16T15:49:11;37.85;36.24;40.13;;
72805;Laerm;60920;48.748;19.142;2023-01-16T15:51:40;37.85;36.50;39.75;;
72805;Laerm;60920;48.748;19.142;2023-01-16T15:54:08;37.93;36.12;47.11;;
72805;Laerm;60920;48.748;19.142;2023-01-16T15:56:38;37.89;36.47;41.61;;
72805;Laerm;60920;48.748;19.142;2023-01-16T15:59:04;37.89;36.34;40.93;;